Gesamt
Mater Hospital Airport (Brisbane, QLD) YMAT Wetter
There is no TAF data available at YMAT. Showing TAF data for YBAF (6 mi S).
YBAF Terminal Area Forecast (keine Daten für YMAT)
| Here is the undecoded forecast: 2026/09/05 15:06 YBAF 051506Z 0515/0600 VRB03KT CAVOK PROB30 0515/0522 0500 FG SCT002 RMK T 16 17 18 29 Q 1016 1014 1016 1015 |
There is no METAR data available at YMAT. Showing METAR data for YBAF (6 mi S).
Aktueller METAR-Verlauf YBAF (keine Daten für YMAT)
| Date | Time (AEST) | Flight Rules | Wind Dir. | Speed | Type | Height AGL (ft) | Visibility | Temp (°C) | Temp (°F) | Dew Point (°C) | Dew Point (°F) | Rel. Humid. | Pressure | Density Altitude | Remarks |
|---|---|---|---|---|---|---|---|---|---|---|---|---|---|---|---|
| 06-Sep | 01:00 | BCAT1 | Calm | 150 meters |
16° | 60° | 15° | 59° | 94% | 1016 mb | 101 ft | ||||
| 06-Sep | 00:00 | VFR | 190° | 6 kt | 10000 meters | 18° | 64° | 17° | 62° | 94% | 1016 mb | 341 ft | |||
| 05-Sep | 23:00 | VFR | 190° | 6 kt | 10000 meters | 18° | 64° | 17° | 62° | 94% | 1016 mb | 341 ft | |||
| 05-Sep | 22:00 | VFR | 50° | 3 kt | 10000 meters | 19° | 66° | 18° | 64° | 94% | 1016 mb | 461 ft | |||
| 05-Sep | 21:00 | VFR | 50° | 6 kt | 10000 meters | 20° | 68° | 18° | 64° | 88% | 1016 mb | 581 ft | |||
| 05-Sep | 20:00 | VFR | 40° | 5 kt | 10000 meters | 20° | 68° | 18° | 64° | 88% | 1016 mb | 581 ft | |||
| 05-Sep | 19:00 | VFR | 30° | 7 kt | 10000 meters | 21° | 69° | 18° | 64° | 83% | 1016 mb | 701 ft | |||
| 05-Sep | 18:00 | VFR | 40° | 7 kt | 10000 meters | 21° | 69° | 18° | 64° | 83% | 1015 mb | 730 ft | |||
| 05-Sep | 17:00 | VFR | 20° | 11 kt | 10000 meters | 24° | 75° | 17° | 62° | 65% | 1015 mb | 1.090 ft | |||
| 05-Sep | 16:00 | VFR | 20° | 11 kt | 10000 meters | 27° | 80° | 16° | 60° | 51% | 1015 mb | 1.450 ft | |||
| 05-Sep | 15:00 | VFR | 30° | 8 kt | 10000 meters | 29° | 84° | 15° | 59° | 43% | 1015 mb | 1.690 ft | |||
| 05-Sep | 14:00 | VFR | 40° | 9 kt | 10000 meters | 29° | 84° | 16° | 60° | 45% | 1016 mb | 1.661 ft | |||
| 05-Sep | 13:00 | VFR | 30° | 6 kt | 10000 meters | 28° | 82° | 17° | 62° | 51% | 1017 mb | 1.511 ft | |||
| 05-Sep | 12:00 | VFR | 20° | 6 kt | 10000 meters | 27° | 80° | 16° | 60° | 51% | 1018 mb | 1.361 ft | |||
| 05-Sep | 11:00 | VFR | 320° | 2 kt | 10000 meters | 26° | 78° | 16° | 60° | 54% | 1020 mb | 1.182 ft | |||
| 05-Sep | 10:00 | VFR | 310° | 3 kt | 10000 meters | 23° | 73° | 17° | 62° | 69% | 1021 mb | 793 ft | |||
| 05-Sep | 09:00 | VFR | 250° | 4 kt | 10000 meters | 20° | 68° | 17° | 62° | 83% | 1021 mb | 433 ft | |||
| 05-Sep | 08:00 | MVFR | 210° | 1 kt | Broken |
1.300 |
10000 meters | 17° | 62° | 15° | 59° | 88% | 1021 mb | 73 ft | |
| 05-Sep | 07:00 | VFR | 190° | 3 kt | 10000 meters | 15° | 59° | 14° | 57° | 94% | 1021 mb | -167 ft | |||
| 05-Sep | 06:00 | VFR | Calm | 10000 meters | 14° | 57° | 13° | 55° | 94% | 1020 mb | -258 ft | ||||
| 05-Sep | 05:00 | VFR | Calm | 10000 meters |
14° | 57° | 13° | 55° | 94% | 1020 mb | -258 ft | ||||
| 05-Sep | 04:00 | IFR | 220° | 1 kt | 4000 meters |
14° | 57° | 14° | 57° | 100% | 1020 mb | -258 ft | |||
| 05-Sep | 03:00 | BCAT1 | Calm | 600 meters |
15° | 59° | 14° | 57° | 94% | 1020 mb | -138 ft | ||||
| 05-Sep | 02:00 | VFR | 200° | 5 kt | 10000 meters | 16° | 60° | 15° | 59° | 94% | 1020 mb | -18 ft |
Anmelden
| Ihr Browser wird nicht unterstützt. aktualisieren Sie Ihren Browser |
